KVCT/VCT METAR and TAF weather

Enter ICAO airport designator
Station Type Date Time Source
KVCT METAR 2019/04/19 07:51 UTC NOAA

KVCT 190751Z AUTO 10SM CLR 13/09 A2999 RMK AO2 SLP152 T01330094 $


Station Type Date Time Source
KVCT Decoded METAR 2019/04/19 07:51 UTC NOAA

VICTORIA REGIONAL AIRPORT, TX, United States (KVCT) 28-52N 96-56W 31M
Apr 19, 2019 - 03:51 AM EDT / 2019.04.19 0751 UTC
Visibility: 10 mile(s):0
Sky conditions: clear
Temperature: 55.9 F (13.3 C)
Dew Point: 48.9 F (9.4 C)
Relative Humidity: 77%
Pressure (altimeter): 29.99 in. Hg (1015 hPa)
ob: KVCT 190751Z AUTO 10SM CLR 13/09 A2999 RMK AO2 SLP152 T01330094
cycle: 8

Station Type Date Time Source
KVCT TAF 2019/04/19 06:22 UTC NOAA

TAF KVCT 190520Z 1906/2006 32006KT P6SM SKC
FM191600 34016KT P6SM SKC
FM200000 35004KT P6SM SKC

Example: see airport list